createdAt,value
2018-07-15T00:02:07.992Z,17.12
2018-07-15T00:04:35.220Z,17.08
2018-07-15T00:07:02.481Z,17.08
2018-07-15T00:09:29.729Z,17.07
2018-07-15T00:11:57.043Z,17.03
2018-07-15T00:14:24.286Z,17.00
2018-07-15T00:19:41.777Z,16.91
2018-07-15T00:22:09.016Z,16.86
2018-07-15T00:24:36.285Z,16.87
2018-07-15T00:27:03.539Z,16.88
2018-07-15T00:29:30.802Z,16.85
2018-07-15T00:31:58.034Z,16.82
2018-07-15T00:34:25.269Z,16.78
2018-07-15T00:36:52.489Z,16.75
2018-07-15T00:39:19.733Z,16.70
2018-07-15T00:41:47.005Z,16.65
2018-07-15T00:44:14.266Z,16.53
2018-07-15T00:46:41.505Z,16.47
2018-07-15T00:49:08.781Z,16.45
2018-07-15T00:51:36.243Z,16.47
2018-07-15T00:54:03.518Z,16.51
2018-07-15T00:56:30.769Z,16.56
2018-07-15T00:58:58.014Z,16.57
2018-07-15T01:01:25.264Z,16.48
2018-07-15T01:03:53.267Z,16.46
2018-07-15T01:06:20.614Z,16.35
2018-07-15T01:08:47.834Z,16.30
2018-07-15T01:11:15.103Z,16.20
2018-07-15T01:13:42.329Z,16.18
2018-07-15T01:16:09.692Z,16.14
2018-07-15T01:18:36.920Z,16.16
2018-07-15T01:21:09.716Z,16.12
2018-07-15T01:23:36.943Z,16.11
2018-07-15T01:26:04.258Z,16.09
2018-07-15T01:28:31.472Z,16.14
2018-07-15T01:30:58.745Z,16.15
2018-07-15T01:33:25.984Z,16.14
2018-07-15T01:35:53.213Z,16.12
2018-07-15T01:38:20.436Z,16.15
2018-07-15T01:40:47.702Z,16.18
2018-07-15T01:43:14.922Z,16.15
2018-07-15T01:45:42.161Z,16.12
2018-07-15T01:48:09.393Z,16.06
2018-07-15T01:50:36.659Z,15.93
2018-07-15T01:53:04.135Z,15.74
2018-07-15T01:55:31.363Z,15.59
2018-07-15T01:57:58.630Z,15.52
2018-07-15T02:00:25.834Z,15.53
2018-07-15T02:02:53.093Z,15.40
2018-07-15T02:05:20.323Z,15.35
2018-07-15T02:07:47.559Z,15.28
2018-07-15T02:10:14.826Z,15.31
2018-07-15T02:12:42.090Z,15.38
2018-07-15T02:15:09.335Z,15.39
2018-07-15T02:17:36.592Z,15.35
2018-07-15T02:20:03.853Z,15.32
2018-07-15T02:22:31.098Z,15.29
2018-07-15T02:24:58.431Z,15.25
2018-07-15T02:27:25.704Z,15.16
2018-07-15T02:29:52.950Z,15.08
2018-07-15T02:32:20.273Z,15.07
2018-07-15T02:34:47.524Z,15.06
2018-07-15T02:37:14.800Z,15.02
2018-07-15T02:39:42.075Z,14.96
2018-07-15T02:42:09.327Z,14.95
2018-07-15T02:44:36.612Z,14.99
2018-07-15T02:47:03.855Z,14.98
2018-07-15T02:49:31.111Z,14.93
2018-07-15T02:51:58.342Z,14.86
2018-07-15T02:54:25.614Z,14.89
2018-07-15T02:56:52.859Z,14.71
2018-07-15T02:59:20.174Z,14.48
2018-07-15T03:01:47.466Z,14.38
2018-07-15T03:04:15.465Z,14.40
2018-07-15T03:06:42.787Z,14.44
2018-07-15T03:09:11.473Z,14.46
2018-07-15T03:11:38.834Z,14.47
2018-07-15T03:14:06.330Z,14.45
2018-07-15T03:16:33.903Z,14.39
2018-07-15T03:19:02.757Z,14.36
2018-07-15T03:21:31.431Z,14.41
2018-07-15T03:24:00.217Z,14.44
2018-07-15T03:26:27.615Z,14.53
2018-07-15T03:28:54.936Z,14.61
2018-07-15T03:31:22.258Z,14.62
2018-07-15T03:33:52.369Z,14.62
2018-07-15T03:36:19.733Z,14.50
2018-07-15T03:38:47.041Z,14.46
2018-07-15T03:41:14.303Z,14.43
2018-07-15T03:43:41.682Z,14.41
2018-07-15T03:46:09.006Z,14.44
2018-07-15T03:48:36.339Z,14.45
2018-07-15T03:51:03.742Z,14.45
2018-07-15T03:53:31.178Z,14.48
2018-07-15T03:55:58.544Z,14.46
2018-07-15T03:58:25.831Z,14.43
2018-07-15T04:00:53.235Z,14.44
2018-07-15T04:03:20.511Z,14.46
2018-07-15T04:05:47.893Z,14.49
2018-07-15T04:08:15.194Z,14.45
2018-07-15T04:10:42.531Z,14.40
2018-07-15T04:13:09.863Z,14.47
2018-07-15T04:15:37.740Z,14.47
2018-07-15T04:18:06.217Z,14.51
2018-07-15T04:20:34.890Z,14.56
2018-07-15T04:23:03.094Z,14.65
2018-07-15T04:25:31.163Z,14.72
2018-07-15T04:27:59.071Z,14.80
2018-07-15T04:30:26.409Z,14.89
2018-07-15T04:32:53.991Z,15.01
2018-07-15T04:35:21.285Z,15.13
2018-07-15T04:37:48.644Z,15.25
2018-07-15T04:40:15.998Z,15.37
2018-07-15T04:42:43.474Z,15.48
2018-07-15T04:45:10.828Z,15.63
2018-07-15T04:47:38.149Z,15.85
2018-07-15T04:50:05.495Z,16.07
2018-07-15T04:52:33.146Z,16.28
2018-07-15T04:55:00.475Z,16.50
2018-07-15T04:57:28.457Z,16.67
2018-07-15T04:59:56.133Z,16.80
2018-07-15T05:02:23.440Z,16.93
2018-07-15T05:04:50.786Z,17.02
2018-07-15T05:07:18.072Z,17.07
2018-07-15T05:09:45.378Z,17.14
2018-07-15T05:12:13.522Z,17.40
2018-07-15T05:14:40.848Z,17.60
2018-07-15T05:17:08.163Z,17.86
2018-07-15T05:19:35.613Z,18.07
2018-07-15T05:22:02.950Z,18.09
2018-07-15T05:24:30.349Z,18.26
2018-07-15T05:26:57.638Z,18.37
2018-07-15T05:29:24.994Z,18.57
2018-07-15T05:31:52.340Z,18.62
2018-07-15T05:34:19.686Z,18.81
2018-07-15T05:36:49.215Z,18.87
2018-07-15T05:39:17.159Z,18.85
2018-07-15T05:41:44.606Z,18.88
2018-07-15T05:44:14.223Z,18.98
2018-07-15T05:46:41.666Z,18.95
2018-07-15T05:49:09.021Z,19.19
2018-07-15T05:51:36.338Z,19.41
2018-07-15T05:54:03.670Z,19.58
2018-07-15T05:56:31.077Z,19.68
2018-07-15T05:58:58.412Z,19.75
2018-07-15T06:01:26.282Z,19.75
2018-07-15T06:03:53.748Z,19.79
2018-07-15T06:06:21.061Z,19.80
2018-07-15T06:08:49.348Z,19.75
2018-07-15T06:11:17.430Z,19.88
2018-07-15T06:13:44.746Z,20.34
2018-07-15T06:16:12.695Z,20.34
2018-07-15T06:18:40.028Z,20.67
2018-07-15T06:21:07.302Z,20.88
2018-07-15T06:23:34.598Z,21.06
2018-07-15T06:26:01.862Z,21.16
2018-07-15T06:28:29.187Z,21.41
2018-07-15T06:30:57.676Z,21.24
2018-07-15T06:33:25.046Z,21.51
2018-07-15T06:35:52.446Z,21.64
2018-07-15T06:38:20.667Z,21.51
2018-07-15T06:40:48.192Z,21.92
2018-07-15T06:43:16.191Z,21.92
2018-07-15T06:45:43.767Z,22.22
2018-07-15T06:48:11.319Z,22.21
2018-07-15T06:50:38.817Z,22.45
2018-07-15T06:53:06.191Z,22.33
2018-07-15T06:55:33.493Z,22.50
2018-07-15T06:58:00.801Z,22.46
2018-07-15T07:00:28.113Z,22.56
2018-07-15T07:02:55.385Z,23.06
2018-07-15T07:05:22.747Z,22.88
2018-07-15T07:07:50.349Z,22.75
2018-07-15T07:10:17.678Z,23.14
2018-07-15T07:12:45.130Z,23.28
2018-07-15T07:15:12.503Z,23.66
2018-07-15T07:17:39.814Z,23.73
2018-07-15T07:20:07.167Z,24.11
2018-07-15T07:22:35.048Z,24.00
2018-07-15T07:25:02.531Z,24.03
2018-07-15T07:27:29.899Z,24.19
2018-07-15T07:29:57.230Z,24.20
2018-07-15T07:32:24.578Z,24.61
2018-07-15T07:34:52.879Z,24.59
2018-07-15T07:37:20.264Z,24.36
2018-07-15T07:39:47.714Z,24.50
2018-07-15T07:42:15.101Z,24.53
2018-07-15T07:44:42.486Z,24.61
2018-07-15T07:47:09.835Z,24.58
2018-07-15T07:49:37.132Z,24.93
2018-07-15T07:52:04.810Z,25.32
2018-07-15T07:54:32.114Z,25.31
2018-07-15T07:56:59.471Z,25.61
2018-07-15T07:59:26.767Z,25.73
2018-07-15T08:01:54.229Z,25.74
2018-07-15T08:04:21.491Z,26.43
2018-07-15T08:06:48.806Z,26.30
2018-07-15T08:09:16.641Z,26.31
2018-07-15T08:11:44.058Z,27.06
2018-07-15T08:14:11.389Z,27.36
2018-07-15T08:16:39.322Z,27.34
2018-07-15T08:19:06.755Z,27.08
2018-07-15T08:21:34.201Z,26.52
2018-07-15T08:24:01.538Z,26.63
2018-07-15T08:26:28.899Z,26.61
2018-07-15T08:28:56.208Z,26.57
2018-07-15T08:31:23.489Z,26.79
2018-07-15T08:33:51.028Z,26.74
2018-07-15T08:36:18.411Z,27.24
2018-07-15T08:38:45.718Z,27.46
2018-07-15T08:41:14.104Z,27.66
2018-07-15T08:43:41.449Z,27.63
2018-07-15T08:46:08.885Z,27.70
2018-07-15T08:48:36.161Z,27.22
2018-07-15T08:51:04.285Z,27.86
2018-07-15T08:53:31.650Z,27.61
2018-07-15T08:55:59.068Z,27.54
2018-07-15T08:58:26.413Z,27.99
2018-07-15T09:00:53.758Z,27.91
2018-07-15T09:03:21.104Z,27.92
2018-07-15T09:05:48.484Z,27.98
2018-07-15T09:08:15.794Z,27.92
2018-07-15T09:10:43.168Z,28.71
2018-07-15T09:13:10.495Z,27.93
2018-07-15T09:15:38.525Z,27.65
2018-07-15T09:18:05.860Z,27.38
2018-07-15T09:20:33.195Z,27.70
2018-07-15T09:23:00.494Z,28.31
2018-07-15T09:25:27.838Z,29.19
2018-07-15T09:27:55.185Z,29.13
2018-07-15T09:30:22.556Z,29.37
2018-07-15T09:32:49.901Z,30.28
2018-07-15T09:35:17.273Z,30.27
2018-07-15T09:37:44.546Z,30.14
2018-07-15T09:40:11.883Z,29.91
2018-07-15T09:42:39.233Z,30.34
2018-07-15T09:45:06.587Z,30.96
2018-07-15T09:47:34.052Z,29.99
2018-07-15T09:50:01.374Z,29.62
2018-07-15T09:52:28.747Z,30.05
2018-07-15T09:54:56.050Z,30.35
2018-07-15T09:57:23.505Z,29.74
2018-07-15T09:59:50.860Z,28.61
2018-07-15T10:02:18.218Z,29.49
2018-07-15T10:04:45.532Z,28.84
2018-07-15T10:07:13.067Z,28.91
2018-07-15T10:09:41.403Z,28.23
2018-07-15T10:12:08.764Z,27.78
2018-07-15T10:14:36.374Z,28.24
2018-07-15T10:17:03.877Z,28.81
2018-07-15T10:19:31.205Z,28.62
2018-07-15T10:21:58.535Z,29.15
2018-07-15T10:24:25.839Z,29.41
2018-07-15T10:26:53.188Z,29.39
2018-07-15T10:29:21.252Z,28.52
2018-07-15T10:31:48.648Z,28.63
2018-07-15T10:34:16.014Z,28.79
2018-07-15T10:36:43.458Z,29.76
2018-07-15T10:39:10.980Z,29.87
2018-07-15T10:41:38.365Z,30.04
2018-07-15T10:44:05.890Z,30.55
2018-07-15T10:46:34.199Z,30.19
2018-07-15T10:49:01.767Z,30.14
2018-07-15T10:51:29.104Z,30.49
2018-07-15T10:53:56.503Z,30.73
2018-07-15T10:56:23.833Z,30.83
2018-07-15T10:58:51.198Z,30.53
2018-07-15T11:01:18.439Z,30.18
2018-07-15T11:03:46.401Z,29.84
2018-07-15T11:06:14.325Z,30.26
2018-07-15T11:08:41.667Z,29.55
2018-07-15T11:11:09.031Z,29.86
2018-07-15T11:13:36.441Z,29.67
2018-07-15T11:16:04.020Z,29.93
2018-07-15T11:18:38.026Z,30.27
2018-07-15T11:21:05.375Z,30.94
2018-07-15T11:23:32.725Z,30.43
2018-07-15T11:26:00.113Z,30.43
2018-07-15T11:28:27.469Z,31.33
2018-07-15T11:30:54.933Z,31.53
2018-07-15T11:33:22.270Z,31.08
2018-07-15T11:35:49.604Z,31.18
2018-07-15T11:38:17.149Z,30.61
2018-07-15T11:40:44.501Z,31.37
2018-07-15T11:43:11.827Z,31.06
2018-07-15T11:45:39.153Z,30.06
2018-07-15T11:48:06.479Z,28.41
2018-07-15T11:50:33.892Z,28.02
2018-07-15T11:53:01.191Z,27.48
2018-07-15T11:55:29.213Z,28.52
2018-07-15T11:57:56.538Z,30.16
2018-07-15T12:00:23.924Z,30.98
2018-07-15T12:02:51.457Z,31.28
2018-07-15T12:05:18.759Z,30.96
2018-07-15T12:07:46.083Z,30.85
2018-07-15T12:10:13.378Z,30.81
2018-07-15T12:12:40.714Z,30.57
2018-07-15T12:15:08.080Z,30.52
2018-07-15T12:17:35.415Z,30.62
2018-07-15T12:20:03.735Z,30.18
2018-07-15T12:22:31.717Z,30.39
2018-07-15T12:24:59.301Z,31.42
2018-07-15T12:27:26.673Z,31.34
2018-07-15T12:29:53.984Z,31.28
2018-07-15T12:32:21.364Z,31.83
2018-07-15T12:34:48.806Z,31.70
2018-07-15T12:37:16.183Z,32.42
2018-07-15T12:39:55.829Z,32.89
2018-07-15T12:42:23.246Z,32.88
2018-07-15T12:44:50.653Z,31.96
2018-07-15T12:47:18.238Z,32.36
2018-07-15T12:49:45.683Z,31.59
2018-07-15T12:52:14.302Z,31.11
2018-07-15T12:54:41.647Z,31.11
2018-07-15T12:57:09.043Z,31.37
2018-07-15T12:59:36.407Z,31.62
2018-07-15T13:02:03.764Z,31.67
2018-07-15T13:04:31.827Z,31.69
2018-07-15T13:06:59.231Z,32.22
2018-07-15T13:09:26.625Z,32.43
2018-07-15T13:11:54.061Z,32.11
2018-07-15T13:14:21.447Z,31.98
2018-07-15T13:16:48.802Z,31.48
2018-07-15T13:19:16.133Z,31.34
2018-07-15T13:21:43.483Z,31.84
2018-07-15T13:24:11.041Z,30.34
2018-07-15T13:26:38.455Z,30.72
2018-07-15T13:29:05.975Z,30.55
2018-07-15T13:31:33.560Z,30.13
2018-07-15T13:34:00.915Z,31.13
2018-07-15T13:36:28.255Z,31.35
2018-07-15T13:38:55.572Z,31.43
2018-07-15T13:41:23.024Z,31.62
2018-07-15T13:43:50.353Z,31.21
2018-07-15T13:46:17.726Z,31.34
2018-07-15T13:48:45.105Z,30.50
2018-07-15T13:51:12.504Z,30.84
2018-07-15T13:53:39.894Z,30.36
2018-07-15T13:56:07.272Z,30.69
2018-07-15T13:58:34.623Z,31.04
2018-07-15T14:01:03.187Z,30.85
2018-07-15T14:03:31.481Z,30.79
2018-07-15T14:05:59.611Z,30.00
2018-07-15T14:08:26.926Z,30.13
2018-07-15T14:10:54.293Z,30.38
2018-07-15T14:13:21.661Z,30.19
2018-07-15T14:15:48.996Z,29.73
2018-07-15T14:18:16.520Z,29.36
2018-07-15T14:20:43.849Z,29.66
2018-07-15T14:23:11.202Z,29.92
2018-07-15T14:25:38.556Z,29.56
2018-07-15T14:28:06.009Z,29.50
2018-07-15T14:30:33.363Z,28.94
2018-07-15T14:33:00.708Z,28.54
2018-07-15T14:35:28.035Z,28.67
2018-07-15T14:37:55.490Z,28.91
2018-07-15T14:40:22.760Z,28.96
2018-07-15T14:42:50.110Z,28.90
2018-07-15T14:45:18.186Z,28.62
2018-07-15T14:47:45.581Z,28.85
2018-07-15T14:50:12.929Z,28.82
2018-07-15T14:52:40.308Z,28.59
2018-07-15T14:55:07.708Z,28.60
2018-07-15T14:57:35.826Z,28.78
2018-07-15T15:00:03.255Z,28.94
2018-07-15T15:02:30.636Z,28.99
2018-07-15T15:04:58.556Z,28.64
2018-07-15T15:07:25.955Z,28.63
2018-07-15T15:09:53.331Z,28.24
2018-07-15T15:12:21.237Z,28.39
2018-07-15T15:14:55.210Z,28.14
2018-07-15T15:17:22.584Z,28.18
2018-07-15T15:19:49.900Z,28.00
2018-07-15T15:22:17.349Z,28.08
2018-07-15T15:24:44.759Z,28.02
2018-07-15T15:27:14.173Z,28.18
2018-07-15T15:29:41.718Z,28.26
2018-07-15T15:32:09.075Z,28.04
2018-07-15T15:34:36.496Z,28.16
2018-07-15T15:37:03.864Z,27.97
2018-07-15T15:39:31.738Z,27.94
2018-07-15T15:41:59.133Z,27.77
2018-07-15T15:44:26.674Z,27.94
2018-07-15T15:46:54.016Z,27.88
2018-07-15T15:49:21.383Z,27.72
2018-07-15T15:51:48.682Z,27.46
2018-07-15T15:54:16.211Z,27.37
2018-07-15T15:56:43.530Z,27.07
2018-07-15T15:59:10.894Z,27.12
2018-07-15T16:01:38.280Z,27.01
2018-07-15T16:04:05.693Z,27.08
2018-07-15T16:06:33.042Z,27.38
2018-07-15T16:09:00.390Z,27.49
2018-07-15T16:11:27.772Z,27.57
2018-07-15T16:13:55.172Z,27.41
2018-07-15T16:16:23.345Z,27.37
2018-07-15T16:18:50.693Z,27.25
2018-07-15T16:21:18.040Z,27.37
2018-07-15T16:23:45.691Z,27.24
2018-07-15T16:26:13.895Z,27.18
2018-07-15T16:28:41.218Z,27.32
2018-07-15T16:31:08.610Z,27.20
2018-07-15T16:33:36.114Z,27.09
2018-07-15T16:36:03.511Z,27.01
2018-07-15T16:38:30.838Z,26.95
2018-07-15T16:40:58.229Z,27.15
2018-07-15T16:43:25.779Z,27.11
2018-07-15T16:45:53.787Z,27.18
2018-07-15T16:48:21.280Z,27.17
2018-07-15T16:50:48.590Z,27.05
2018-07-15T16:53:15.940Z,26.88
2018-07-15T16:55:43.285Z,26.85
2018-07-15T16:58:10.571Z,26.86
2018-07-15T17:00:37.936Z,26.88
2018-07-15T17:03:05.775Z,26.71
2018-07-15T17:05:33.750Z,26.72
2018-07-15T17:08:01.088Z,26.70
2018-07-15T17:10:28.396Z,26.82
2018-07-15T17:12:55.775Z,26.68
2018-07-15T17:15:23.114Z,26.66
2018-07-15T17:17:50.458Z,26.60
2018-07-15T17:20:17.751Z,26.62
2018-07-15T17:22:45.101Z,26.50
2018-07-15T17:25:12.943Z,26.44
2018-07-15T17:27:40.338Z,26.42
2018-07-15T17:30:07.673Z,26.35
2018-07-15T17:32:35.015Z,26.22
2018-07-15T17:35:02.277Z,26.32
2018-07-15T17:37:29.572Z,26.31
2018-07-15T17:39:57.001Z,26.29
2018-07-15T17:42:24.346Z,26.24
2018-07-15T17:44:53.007Z,26.25
2018-07-15T17:47:20.438Z,26.29
2018-07-15T17:49:48.734Z,26.22
2018-07-15T17:52:16.170Z,26.09
2018-07-15T17:54:43.710Z,26.12
2018-07-15T17:57:11.237Z,26.04
2018-07-15T17:59:39.428Z,26.02
2018-07-15T18:02:07.684Z,26.04
2018-07-15T18:04:35.351Z,26.09
2018-07-15T18:07:02.782Z,25.93
2018-07-15T18:09:30.129Z,25.89
2018-07-15T18:11:58.383Z,25.82
2018-07-15T18:14:25.810Z,25.81
2018-07-15T18:16:53.295Z,25.74
2018-07-15T18:19:20.709Z,25.65
2018-07-15T18:21:48.155Z,25.55
2018-07-15T18:24:15.546Z,25.49
2018-07-15T18:26:42.903Z,25.47
2018-07-15T18:29:10.237Z,25.43
2018-07-15T18:31:37.645Z,25.42
2018-07-15T18:34:05.075Z,25.35
2018-07-15T18:36:33.143Z,25.31
2018-07-15T18:39:00.536Z,25.21
2018-07-15T18:41:28.992Z,25.18
2018-07-15T18:43:56.340Z,25.15
2018-07-15T18:46:24.265Z,25.04
2018-07-15T18:48:51.650Z,24.98
2018-07-15T18:51:19.038Z,24.98
2018-07-15T18:53:47.072Z,24.93
2018-07-15T18:56:15.268Z,24.83
2018-07-15T18:58:43.664Z,24.72
2018-07-15T19:01:11.109Z,24.58
2018-07-15T19:03:38.516Z,24.41
2018-07-15T19:06:05.978Z,24.31
2018-07-15T19:08:33.294Z,24.17
2018-07-15T19:11:00.701Z,24.10
2018-07-15T19:13:28.922Z,24.03
2018-07-15T19:15:56.920Z,23.89
2018-07-15T19:18:24.357Z,23.75
2018-07-15T19:20:51.690Z,23.72
2018-07-15T19:23:19.645Z,23.71
2018-07-15T19:25:46.937Z,23.66
2018-07-15T19:28:15.013Z,23.59
2018-07-15T19:30:43.919Z,23.54
2018-07-15T19:33:11.295Z,23.49
2018-07-15T19:35:38.614Z,23.51
2018-07-15T19:38:06.174Z,23.47
2018-07-15T19:40:33.523Z,23.51
2018-07-15T19:43:00.876Z,23.43
2018-07-15T19:45:28.941Z,23.35
2018-07-15T19:47:56.279Z,23.24
2018-07-15T19:50:23.609Z,23.08
2018-07-15T19:52:50.903Z,23.04
2018-07-15T19:55:18.189Z,22.97
2018-07-15T19:57:45.548Z,22.81
2018-07-15T20:00:12.925Z,22.76
2018-07-15T20:02:40.169Z,22.73
2018-07-15T20:05:07.429Z,22.64
2018-07-15T20:07:34.736Z,22.58
2018-07-15T20:10:02.116Z,22.48
2018-07-15T20:12:29.624Z,22.42
2018-07-15T20:14:56.960Z,22.39
2018-07-15T20:17:24.198Z,22.35
2018-07-15T20:19:51.492Z,22.27
2018-07-15T20:22:18.773Z,22.26
2018-07-15T20:24:46.082Z,22.27
2018-07-15T20:27:13.473Z,22.14
2018-07-15T20:29:40.738Z,22.12
2018-07-15T20:32:08.021Z,22.05
2018-07-15T20:34:35.309Z,22.00
2018-07-15T20:37:02.592Z,21.98
2018-07-15T20:39:29.981Z,21.94
2018-07-15T20:41:57.261Z,21.88
2018-07-15T20:44:24.523Z,21.78
2018-07-15T20:46:51.744Z,21.70
2018-07-15T20:49:19.001Z,21.68
2018-07-15T20:51:46.249Z,21.71
2018-07-15T20:54:13.499Z,21.62
2018-07-15T20:56:40.767Z,21.46
2018-07-15T20:59:08.019Z,21.35
2018-07-15T21:01:35.392Z,21.30
2018-07-15T21:04:03.442Z,21.21
2018-07-15T21:06:31.374Z,21.11
2018-07-15T21:08:59.136Z,21.13
2018-07-15T21:11:26.418Z,21.18
2018-07-15T21:13:53.661Z,21.21
2018-07-15T21:16:21.083Z,21.10
2018-07-15T21:18:48.356Z,20.94
2018-07-15T21:21:16.593Z,20.89
2018-07-15T21:23:43.816Z,20.89
2018-07-15T21:26:11.080Z,20.91
2018-07-15T21:28:38.312Z,20.89
2018-07-15T21:31:05.968Z,20.88
2018-07-15T21:33:33.202Z,20.80
2018-07-15T21:36:10.300Z,20.70
2018-07-15T21:38:37.521Z,20.65
2018-07-15T21:41:04.881Z,20.53
2018-07-15T21:43:32.183Z,20.34
2018-07-15T21:45:59.417Z,20.15
2018-07-15T21:48:26.664Z,20.01
2018-07-15T21:50:53.904Z,19.74
2018-07-15T21:53:21.199Z,19.51
2018-07-15T21:55:48.438Z,19.28
2018-07-15T21:58:15.688Z,19.19
2018-07-15T22:00:42.899Z,19.28
2018-07-15T22:03:10.213Z,19.45
2018-07-15T22:05:37.440Z,19.64
2018-07-15T22:08:15.920Z,19.79
2018-07-15T22:10:44.434Z,19.82
2018-07-15T22:13:11.675Z,19.74
2018-07-15T22:15:39.246Z,19.79
2018-07-15T22:18:06.668Z,19.83
2018-07-15T22:20:33.921Z,19.83
2018-07-15T22:23:03.717Z,19.82
2018-07-15T22:25:30.996Z,19.84
2018-07-15T22:27:58.264Z,19.76
2018-07-15T22:30:25.815Z,19.32
2018-07-15T22:32:53.053Z,19.02
2018-07-15T22:35:20.310Z,18.85
2018-07-15T22:37:47.536Z,18.64
2018-07-15T22:40:14.817Z,18.52
2018-07-15T22:42:42.058Z,18.36
2018-07-15T22:45:09.334Z,18.30
2018-07-15T22:47:36.562Z,18.28
2018-07-15T22:50:03.843Z,18.23
2018-07-15T22:52:31.253Z,18.24
2018-07-15T22:54:59.282Z,18.20
2018-07-15T22:57:26.541Z,18.14
2018-07-15T22:59:53.811Z,18.23
2018-07-15T23:02:21.238Z,18.26
2018-07-15T23:05:57.867Z,18.28
2018-07-15T23:08:27.302Z,18.08
2018-07-15T23:10:54.642Z,18.13
2018-07-15T23:13:21.966Z,18.08
2018-07-15T23:15:49.773Z,18.04
2018-07-15T23:18:17.177Z,18.00
2018-07-15T23:20:45.051Z,17.90
2018-07-15T23:23:12.687Z,17.73
2018-07-15T23:25:39.936Z,17.50
2018-07-15T23:28:08.254Z,17.34
2018-07-15T23:30:36.192Z,17.29
2018-07-15T23:33:03.967Z,17.25
2018-07-15T23:35:31.591Z,17.25
2018-07-15T23:37:58.982Z,17.27
2018-07-15T23:40:26.358Z,17.20
2018-07-15T23:42:54.574Z,17.06
2018-07-15T23:45:22.505Z,16.97
2018-07-15T23:47:49.760Z,16.84
2018-07-15T23:50:17.042Z,16.70
2018-07-15T23:52:44.247Z,16.66
2018-07-15T23:55:18.465Z,16.67
2018-07-15T23:57:45.726Z,16.63
